Date,TemperatureHighF,TemperatureAvgF,TemperatureLowF,DewpointHighF,DewpointAvgF,DewpointLowF,HumidityHigh,HumidityAvg,HumidityLow,PressureMaxIn,PressureMinIn,WindSpeedMaxMPH,WindSpeedAvgMPH,GustSpeedMaxMPH,PrecipitationSumIn
2013-2-1,17.5,13.6,8.9,12.0,8.6,3.0,89,80,68,30.26,29.88,19,7,0,0.00
2013-2-2,21.4,15.2,8.8,18.0,11.5,6.0,89,85,77,30.21,29.95,12,4,0,0.00
2013-2-3,19.9,12.6,3.7,16.0,8.7,1.0,90,84,71,30.02,29.86,12,3,0,0.00
2013-2-4,21.9,18.1,15.5,18.0,14.9,10.0,90,87,77,30.03,29.88,7,2,0,0.01
2013-2-5,27.1,19.6,6.8,26.0,16.5,4.0,94,88,73,29.96,29.80,14,4,0,0.00
2013-2-6,31.2,22.9,11.7,23.0,16.4,9.0,92,77,58,30.29,29.96,8,3,0,0.01
2013-2-7,37.4,29.5,24.2,29.0,23.1,17.0,92,77,71,30.27,29.86,13,6,0,0.01
2013-2-8,28.2,24.6,14.6,27.0,22.1,13.0,96,90,77,30.34,29.79,13,3,0,0.00
2013-2-9,30.4,19.1,5.4,20.0,14.2,3.0,93,82,59,30.45,30.27,11,4,0,0.00
2013-2-10,39.2,30.3,21.2,37.0,25.7,19.0,93,83,68,30.27,29.67,18,9,0,0.11
2013-2-11,44.3,36.8,31.0,43.0,31.7,26.0,96,82,70,29.82,29.52,36,16,0,0.14
2013-2-12,31.0,29.3,26.9,26.0,23.8,22.0,83,80,76,30.02,29.83,19,6,0,0.00
2013-2-13,39.0,30.2,25.2,28.0,24.2,22.0,87,79,62,29.91,29.71,10,3,0,0.00
2013-2-14,38.2,33.6,29.2,34.0,30.3,27.0,93,88,81,29.82,29.64,27,9,0,0.04
2013-2-15,32.3,26.0,20.7,28.0,17.3,13.0,84,70,57,30.11,29.82,11,3,0,0.00
2013-2-16,23.5,19.1,14.6,18.0,14.4,11.0,89,82,62,30.09,29.97,8,2,0,0.00
2013-2-17,24.0,15.7,7.7,13.0,7.3,4.0,92,71,50,30.21,30.06,5,1,0,0.00
2013-2-18,45.9,30.2,15.9,38.0,21.4,8.0,79,70,59,30.20,29.58,22,11,0,0.00
2013-2-19,44.1,27.4,16.8,41.0,23.7,12.0,100,86,74,29.90,29.38,30,14,0,0.16
2013-2-20,21.2,18.6,15.0,16.0,12.2,9.0,86,76,66,30.24,29.91,14,5,0,0.00
2013-2-21,24.7,20.8,19.2,17.0,15.0,13.0,86,78,67,30.37,30.24,11,3,0,0.00
2013-2-22,32.5,26.1,20.7,32.0,24.2,17.0,97,92,84,30.26,29.87,14,6,0,0.00
2013-2-23,32.1,28.6,23.0,31.0,23.6,19.0,94,81,70,29.90,29.85,21,8,0,0.00
2013-2-24,35.3,27.8,21.9,27.0,22.6,19.0,92,82,65,30.14,29.88,9,3,0,0.01
2013-2-25,39.6,30.5,18.4,28.0,23.0,17.0,95,75,56,30.22,30.08,8,2,0,0.00
2013-2-26,34.4,31.6,28.0,32.0,26.8,21.0,96,83,70,30.11,29.48,19,6,0,0.18
2013-2-27,34.7,33.4,32.7,34.0,32.4,32.0,97,96,93,29.55,29.42,11,3,0,0.32
2013-2-28,35.1,32.1,28.4,33.0,30.2,25.0,97,92,85,29.95,29.52,10,3,0,0.10